sensor_id;sensor_type;location;lat;lon;timestamp;pressure;altitude;pressure_sealevel;temperature
39959;BMP280;25639;53.634;9.880;2023-03-12T00:00:15;149391.22;;;-12.12
39959;BMP280;25639;53.634;9.880;2023-03-12T00:02:40;149377.41;;;-12.18
39959;BMP280;25639;53.634;9.880;2023-03-12T00:05:06;149398.72;;;-12.09
39959;BMP280;25639;53.634;9.880;2023-03-12T00:07:31;149372.41;;;-12.20
39959;BMP280;25639;53.634;9.880;2023-03-12T00:09:57;149381.19;;;-12.16
39959;BMP280;25639;53.634;9.880;2023-03-12T00:12:22;149364.91;;;-12.23
39959;BMP280;25639;53.634;9.880;2023-03-12T00:14:47;149349.84;;;-12.29
39959;BMP280;25639;53.634;9.880;2023-03-12T00:17:12;149363.63;;;-12.23
39959;BMP280;25639;53.634;9.880;2023-03-12T00:19:38;149366.16;;;-12.22
39959;BMP280;25639;53.634;9.880;2023-03-12T00:22:03;149349.84;;;-12.29
39959;BMP280;25639;53.634;9.880;2023-03-12T00:24:28;149337.31;;;-12.34
39959;BMP280;25639;53.634;9.880;2023-03-12T00:26:54;149339.84;;;-12.33
39959;BMP280;25639;53.634;9.880;2023-03-12T00:29:19;149322.28;;;-12.40
39959;BMP280;25639;53.634;9.880;2023-03-12T00:31:44;149312.28;;;-12.44
39959;BMP280;25639;53.634;9.880;2023-03-12T00:34:09;149317.28;;;-12.42
39959;BMP280;25639;53.634;9.880;2023-03-12T00:36:36;149344.84;;;-12.31
39959;BMP280;25639;53.634;9.880;2023-03-12T00:39:02;149314.75;;;-12.43
39959;BMP280;25639;53.634;9.880;2023-03-12T00:41:28;149323.53;;;-12.40
39959;BMP280;25639;53.634;9.880;2023-03-12T00:43:54;149314.75;;;-12.43
39959;BMP280;25639;53.634;9.880;2023-03-12T00:46:20;149307.22;;;-12.47
39959;BMP280;25639;53.634;9.880;2023-03-12T00:48:46;149289.69;;;-12.54
39959;BMP280;25639;53.634;9.880;2023-03-12T00:51:11;149311.00;;;-12.45
39959;BMP280;25639;53.634;9.880;2023-03-12T00:53:37;149308.53;;;-12.46
39959;BMP280;25639;53.634;9.880;2023-03-12T00:56:03;149298.47;;;-12.50
39959;BMP280;25639;53.634;9.880;2023-03-12T00:58:28;149282.22;;;-12.57
39959;BMP280;25639;53.634;9.880;2023-03-12T01:00:54;149298.47;;;-12.50
39959;BMP280;25639;53.634;9.880;2023-03-12T01:03:19;149280.94;;;-12.57
39959;BMP280;25639;53.634;9.880;2023-03-12T01:05:45;149258.38;;;-12.67
39959;BMP280;25639;53.634;9.880;2023-03-12T01:08:11;149269.69;;;-12.62
39959;BMP280;25639;53.634;9.880;2023-03-12T01:10:40;149254.63;;;-12.68
39959;BMP280;25639;53.634;9.880;2023-03-12T01:13:06;149238.38;;;-12.75
39959;BMP280;25639;53.634;9.880;2023-03-12T01:15:32;149252.13;;;-12.69
39959;BMP280;25639;53.634;9.880;2023-03-12T01:17:57;149260.91;;;-12.66
39959;BMP280;25639;53.634;9.880;2023-03-12T01:20:22;149229.59;;;-12.78
39959;BMP280;25639;53.634;9.880;2023-03-12T01:22:49;149245.84;;;-12.72
39959;BMP280;25639;53.634;9.880;2023-03-12T01:25:14;149228.31;;;-12.79
39959;BMP280;25639;53.634;9.880;2023-03-12T01:27:39;149220.81;;;-12.82
39959;BMP280;25639;53.634;9.880;2023-03-12T01:30:05;149210.78;;;-12.86
39959;BMP280;25639;53.634;9.880;2023-03-12T01:32:30;149223.31;;;-12.81
39959;BMP280;25639;53.634;9.880;2023-03-12T01:34:57;149222.06;;;-12.81
39959;BMP280;25639;53.634;9.880;2023-03-12T01:37:23;149218.31;;;-12.83
39959;BMP280;25639;53.634;9.880;2023-03-12T01:39:48;149229.59;;;-12.78
39959;BMP280;25639;53.634;9.880;2023-03-12T01:42:14;149230.84;;;-12.78
39959;BMP280;25639;53.634;9.880;2023-03-12T01:47:14;149240.84;;;-12.74
39959;BMP280;25639;53.634;9.880;2023-03-12T01:49:40;149254.63;;;-12.68
39959;BMP280;25639;53.634;9.880;2023-03-12T01:52:08;149278.44;;;-12.58
39959;BMP280;25639;53.634;9.880;2023-03-12T01:54:40;149278.44;;;-12.58
39959;BMP280;25639;53.634;9.880;2023-03-12T01:57:09;149280.94;;;-12.57
39959;BMP280;25639;53.634;9.880;2023-03-12T01:59:40;149288.44;;;-12.54
39959;BMP280;25639;53.634;9.880;2023-03-12T02:02:08;149288.44;;;-12.54
39959;BMP280;25639;53.634;9.880;2023-03-12T02:04:35;149290.97;;;-12.53
39959;BMP280;25639;53.634;9.880;2023-03-12T02:07:07;149304.75;;;-12.48
39959;BMP280;25639;53.634;9.880;2023-03-12T02:09:36;149312.28;;;-12.44
39959;BMP280;25639;53.634;9.880;2023-03-12T02:12:03;149326.06;;;-12.39
39959;BMP280;25639;53.634;9.880;2023-03-12T02:14:28;149329.81;;;-12.37
39959;BMP280;25639;53.634;9.880;2023-03-12T02:16:54;149332.31;;;-12.36
39959;BMP280;25639;53.634;9.880;2023-03-12T02:19:52;149329.81;;;-12.37
39959;BMP280;25639;53.634;9.880;2023-03-12T02:22:20;149344.84;;;-12.31
39959;BMP280;25639;53.634;9.880;2023-03-12T02:27:36;149352.38;;;-12.28
39959;BMP280;25639;53.634;9.880;2023-03-12T02:30:03;149354.84;;;-12.27
39959;BMP280;25639;53.634;9.880;2023-03-12T02:32:33;149352.38;;;-12.28
39959;BMP280;25639;53.634;9.880;2023-03-12T02:35:00;149351.09;;;-12.29
39959;BMP280;25639;53.634;9.880;2023-03-12T02:37:26;149356.16;;;-12.26
39959;BMP280;25639;53.634;9.880;2023-03-12T02:40:03;149361.16;;;-12.24
39959;BMP280;25639;53.634;9.880;2023-03-12T02:42:30;149381.19;;;-12.16
39959;BMP280;25639;53.634;9.880;2023-03-12T02:44:56;149378.69;;;-12.17
39959;BMP280;25639;53.634;9.880;2023-03-12T02:47:22;149378.69;;;-12.17
39959;BMP280;25639;53.634;9.880;2023-03-12T02:49:47;149386.19;;;-12.14
39959;BMP280;25639;53.634;9.880;2023-03-12T02:52:13;149353.63;;;-12.28
39959;BMP280;25639;53.634;9.880;2023-03-12T02:54:38;149357.38;;;-12.26
39959;BMP280;25639;53.634;9.880;2023-03-12T02:57:03;149347.38;;;-12.30
39959;BMP280;25639;53.634;9.880;2023-03-12T02:59:28;149323.53;;;-12.40
39959;BMP280;25639;53.634;9.880;2023-03-12T03:01:56;149312.28;;;-12.44
39959;BMP280;25639;53.634;9.880;2023-03-12T03:04:22;149322.28;;;-12.40
39959;BMP280;25639;53.634;9.880;2023-03-12T03:06:47;149295.97;;;-12.51
39959;BMP280;25639;53.634;9.880;2023-03-12T03:09:13;149269.69;;;-12.62
39959;BMP280;25639;53.634;9.880;2023-03-12T03:11:38;149248.38;;;-12.71
39959;BMP280;25639;53.634;9.880;2023-03-12T03:14:04;149234.59;;;-12.76
39959;BMP280;25639;53.634;9.880;2023-03-12T03:16:31;149224.53;;;-12.80
39959;BMP280;25639;53.634;9.880;2023-03-12T03:18:57;149222.06;;;-12.81
39959;BMP280;25639;53.634;9.880;2023-03-12T03:21:22;149219.53;;;-12.82
39959;BMP280;25639;53.634;9.880;2023-03-12T03:23:48;149214.53;;;-12.85
39959;BMP280;25639;53.634;9.880;2023-03-12T03:26:16;149193.25;;;-12.93
39959;BMP280;25639;53.634;9.880;2023-03-12T03:28:42;149171.94;;;-13.02
39959;BMP280;25639;53.634;9.880;2023-03-12T03:31:07;149160.69;;;-13.07
39959;BMP280;25639;53.634;9.880;2023-03-12T03:33:35;149169.47;;;-13.03
39959;BMP280;25639;53.634;9.880;2023-03-12T03:36:01;149164.47;;;-13.05
39959;BMP280;25639;53.634;9.880;2023-03-12T03:38:28;149165.69;;;-13.05
39959;BMP280;25639;53.634;9.880;2023-03-12T03:40:54;149129.41;;;-13.19
39959;BMP280;25639;53.634;9.880;2023-03-12T03:43:20;149153.16;;;-13.10
39959;BMP280;25639;53.634;9.880;2023-03-12T03:45:46;149146.94;;;-13.12
39959;BMP280;25639;53.634;9.880;2023-03-12T03:48:12;149116.88;;;-13.25
39959;BMP280;25639;53.634;9.880;2023-03-12T03:50:38;149131.88;;;-13.18
39959;BMP280;25639;53.634;9.880;2023-03-12T03:53:05;149113.09;;;-13.26
39959;BMP280;25639;53.634;9.880;2023-03-12T03:55:31;149120.63;;;-13.23
39959;BMP280;25639;53.634;9.880;2023-03-12T03:57:56;149105.59;;;-13.29
39959;BMP280;25639;53.634;9.880;2023-03-12T04:00:21;149103.09;;;-13.30
39959;BMP280;25639;53.634;9.880;2023-03-12T04:02:47;149113.09;;;-13.26
39959;BMP280;25639;53.634;9.880;2023-03-12T04:05:12;149123.13;;;-13.22
39959;BMP280;25639;53.634;9.880;2023-03-12T04:07:40;149125.63;;;-13.21
39959;BMP280;25639;53.634;9.880;2023-03-12T04:10:05;149138.16;;;-13.16
39959;BMP280;25639;53.634;9.880;2023-03-12T04:12:31;149121.88;;;-13.23
39959;BMP280;25639;53.634;9.880;2023-03-12T04:14:56;149089.34;;;-13.36
39959;BMP280;25639;53.634;9.880;2023-03-12T04:17:21;149104.34;;;-13.30
39959;BMP280;25639;53.634;9.880;2023-03-12T04:19:46;149135.63;;;-13.17
39959;BMP280;25639;53.634;9.880;2023-03-12T04:22:12;149118.13;;;-13.24
39959;BMP280;25639;53.634;9.880;2023-03-12T04:24:38;149125.63;;;-13.21
39959;BMP280;25639;53.634;9.880;2023-03-12T04:27:03;149071.81;;;-13.43
39959;BMP280;25639;53.634;9.880;2023-03-12T04:29:28;149051.81;;;-13.51
39959;BMP280;25639;53.634;9.880;2023-03-12T04:31:53;149040.53;;;-13.56
39959;BMP280;25639;53.634;9.880;2023-03-12T04:34:19;149031.78;;;-13.59
39959;BMP280;25639;53.634;9.880;2023-03-12T04:36:45;149024.28;;;-13.63
39959;BMP280;25639;53.634;9.880;2023-03-12T04:39:11;149026.78;;;-13.62
39959;BMP280;25639;53.634;9.880;2023-03-12T04:41:37;149025.53;;;-13.62
39959;BMP280;25639;53.634;9.880;2023-03-12T04:44:02;149028.00;;;-13.61
39959;BMP280;25639;53.634;9.880;2023-03-12T04:46:28;149013.00;;;-13.67
39959;BMP280;25639;53.634;9.880;2023-03-12T04:48:53;149011.78;;;-13.68
39959;BMP280;25639;53.634;9.880;2023-03-12T04:51:19;148994.25;;;-13.75
39959;BMP280;25639;53.634;9.880;2023-03-12T04:53:44;148999.25;;;-13.73
39959;BMP280;25639;53.634;9.880;2023-03-12T04:56:10;149010.47;;;-13.68
39959;BMP280;25639;53.634;9.880;2023-03-12T04:58:36;148990.47;;;-13.76
39959;BMP280;25639;53.634;9.880;2023-03-12T05:01:01;148982.97;;;-13.79
39959;BMP280;25639;53.634;9.880;2023-03-12T05:03:26;148989.19;;;-13.77
39959;BMP280;25639;53.634;9.880;2023-03-12T05:05:52;148995.47;;;-13.74
39959;BMP280;25639;53.634;9.880;2023-03-12T05:08:17;148994.25;;;-13.75
39959;BMP280;25639;53.634;9.880;2023-03-12T05:10:43;149013.00;;;-13.67
39959;BMP280;25639;53.634;9.880;2023-03-12T05:13:16;149006.72;;;-13.70
39959;BMP280;25639;53.634;9.880;2023-03-12T05:15:42;149015.53;;;-13.66
39959;BMP280;25639;53.634;9.880;2023-03-12T05:18:07;149023.00;;;-13.63
39959;BMP280;25639;53.634;9.880;2023-03-12T05:20:32;149036.75;;;-13.57
39959;BMP280;25639;53.634;9.880;2023-03-12T05:22:58;149035.53;;;-13.58
39959;BMP280;25639;53.634;9.880;2023-03-12T05:25:23;149043.06;;;-13.55
39959;BMP280;25639;53.634;9.880;2023-03-12T05:27:48;149038.06;;;-13.57
39959;BMP280;25639;53.634;9.880;2023-03-12T05:30:13;149040.53;;;-13.56
39959;BMP280;25639;53.634;9.880;2023-03-12T05:32:39;149036.75;;;-13.57
39959;BMP280;25639;53.634;9.880;2023-03-12T05:35:04;149034.28;;;-13.58
39959;BMP280;25639;53.634;9.880;2023-03-12T05:37:30;149031.78;;;-13.59
39959;BMP280;25639;53.634;9.880;2023-03-12T05:39:55;149046.81;;;-13.53
39959;BMP280;25639;53.634;9.880;2023-03-12T05:42:23;149036.75;;;-13.57
39959;BMP280;25639;53.634;9.880;2023-03-12T05:44:49;149073.09;;;-13.43
39959;BMP280;25639;53.634;9.880;2023-03-12T05:47:15;149103.09;;;-13.30
39959;BMP280;25639;53.634;9.880;2023-03-12T05:49:41;149081.88;;;-13.39
39959;BMP280;25639;53.634;9.880;2023-03-12T05:52:06;149069.34;;;-13.44
39959;BMP280;25639;53.634;9.880;2023-03-12T05:54:31;149095.63;;;-13.33
39959;BMP280;25639;53.634;9.880;2023-03-12T05:56:57;149103.09;;;-13.30
39959;BMP280;25639;53.634;9.880;2023-03-12T05:59:23;149074.34;;;-13.42
39959;BMP280;25639;53.634;9.880;2023-03-12T06:01:48;149069.34;;;-13.44
39959;BMP280;25639;53.634;9.880;2023-03-12T06:04:13;149055.56;;;-13.50
39959;BMP280;25639;53.634;9.880;2023-03-12T06:06:38;149073.09;;;-13.43
39959;BMP280;25639;53.634;9.880;2023-03-12T06:09:04;149080.59;;;-13.39
39959;BMP280;25639;53.634;9.880;2023-03-12T06:11:30;149076.88;;;-13.41
39959;BMP280;25639;53.634;9.880;2023-03-12T06:13:56;149083.09;;;-13.38
39959;BMP280;25639;53.634;9.880;2023-03-12T06:16:24;149083.09;;;-13.38
39959;BMP280;25639;53.634;9.880;2023-03-12T06:18:55;149084.34;;;-13.38
39959;BMP280;25639;53.634;9.880;2023-03-12T06:21:22;149095.63;;;-13.33
39959;BMP280;25639;53.634;9.880;2023-03-12T06:23:48;149084.34;;;-13.38
39959;BMP280;25639;53.634;9.880;2023-03-12T06:26:14;149089.34;;;-13.36
39959;BMP280;25639;53.634;9.880;2023-03-12T06:28:40;149101.88;;;-13.31
39959;BMP280;25639;53.634;9.880;2023-03-12T06:31:06;149116.88;;;-13.25
39959;BMP280;25639;53.634;9.880;2023-03-12T06:33:32;149099.41;;;-13.32
39959;BMP280;25639;53.634;9.880;2023-03-12T06:36:00;149126.88;;;-13.20
39959;BMP280;25639;53.634;9.880;2023-03-12T06:38:26;149105.59;;;-13.29
39959;BMP280;25639;53.634;9.880;2023-03-12T06:40:56;149095.63;;;-13.33
39959;BMP280;25639;53.634;9.880;2023-03-12T06:43:23;149110.59;;;-13.27
39959;BMP280;25639;53.634;9.880;2023-03-12T06:45:52;149100.63;;;-13.31
39959;BMP280;25639;53.634;9.880;2023-03-12T06:48:18;149130.63;;;-13.19
39959;BMP280;25639;53.634;9.880;2023-03-12T06:50:43;149190.75;;;-12.94
39959;BMP280;25639;53.634;9.880;2023-03-12T06:53:08;149180.72;;;-12.98
39959;BMP280;25639;53.634;9.880;2023-03-12T06:55:34;149244.59;;;-12.72
39959;BMP280;25639;53.634;9.880;2023-03-12T06:57:59;149259.63;;;-12.66
39959;BMP280;25639;53.634;9.880;2023-03-12T07:00:24;149316.00;;;-12.43
39959;BMP280;25639;53.634;9.880;2023-03-12T07:02:50;149359.84;;;-12.25
39959;BMP280;25639;53.634;9.880;2023-03-12T07:05:15;149408.78;;;-12.05
39959;BMP280;25639;53.634;9.880;2023-03-12T07:07:40;149344.84;;;-12.31
39959;BMP280;25639;53.634;9.880;2023-03-12T07:10:06;149344.84;;;-12.31
39959;BMP280;25639;53.634;9.880;2023-03-12T07:12:32;149379.94;;;-12.17
39959;BMP280;25639;53.634;9.880;2023-03-12T07:14:57;149357.38;;;-12.26
39959;BMP280;25639;53.634;9.880;2023-03-12T07:17:23;149368.63;;;-12.21
39959;BMP280;25639;53.634;9.880;2023-03-12T07:19:50;149392.47;;;-12.12
39959;BMP280;25639;53.634;9.880;2023-03-12T07:22:15;149402.47;;;-12.07
39959;BMP280;25639;53.634;9.880;2023-03-12T07:24:40;149408.78;;;-12.05
39959;BMP280;25639;53.634;9.880;2023-03-12T07:27:05;149442.59;;;-11.91
39959;BMP280;25639;53.634;9.880;2023-03-12T07:29:30;149452.59;;;-11.87
39959;BMP280;25639;53.634;9.880;2023-03-12T07:31:56;149485.19;;;-11.74
39959;BMP280;25639;53.634;9.880;2023-03-12T07:34:21;149505.25;;;-11.65
39959;BMP280;25639;53.634;9.880;2023-03-12T07:36:46;149520.28;;;-11.59
39959;BMP280;25639;53.634;9.880;2023-03-12T07:39:11;149532.84;;;-11.54
39959;BMP280;25639;53.634;9.880;2023-03-12T07:41:37;149547.91;;;-11.48
39959;BMP280;25639;53.634;9.880;2023-03-12T07:44:03;149570.47;;;-11.39
39959;BMP280;25639;53.634;9.880;2023-03-12T07:46:28;149542.84;;;-11.50
39959;BMP280;25639;53.634;9.880;2023-03-12T07:48:54;149604.31;;;-11.25
39959;BMP280;25639;53.634;9.880;2023-03-12T07:51:19;149620.63;;;-11.18
39959;BMP280;25639;53.634;9.880;2023-03-12T07:53:44;149667.06;;;-10.99
39959;BMP280;25639;53.634;9.880;2023-03-12T07:56:09;149648.19;;;-11.07
39959;BMP280;25639;53.634;9.880;2023-03-12T07:58:35;149670.81;;;-10.98
39959;BMP280;25639;53.634;9.880;2023-03-12T08:01:01;149698.41;;;-10.86
39959;BMP280;25639;53.634;9.880;2023-03-12T08:03:26;149741.09;;;-10.69
39959;BMP280;25639;53.634;9.880;2023-03-12T08:05:56;149754.88;;;-10.63
39959;BMP280;25639;53.634;9.880;2023-03-12T08:08:22;149818.91;;;-10.37
39959;BMP280;25639;53.634;9.880;2023-03-12T08:10:47;149818.91;;;-10.37
39959;BMP280;25639;53.634;9.880;2023-03-12T08:13:12;149793.78;;;-10.47
39959;BMP280;25639;53.634;9.880;2023-03-12T08:15:37;149791.28;;;-10.48
39959;BMP280;25639;53.634;9.880;2023-03-12T08:18:03;149791.28;;;-10.48
39959;BMP280;25639;53.634;9.880;2023-03-12T08:20:28;149776.22;;;-10.55
39959;BMP280;25639;53.634;9.880;2023-03-12T08:22:53;149792.56;;;-10.48
39959;BMP280;25639;53.634;9.880;2023-03-12T08:25:19;149781.25;;;-10.52
39959;BMP280;25639;53.634;9.880;2023-03-12T08:27:45;149792.56;;;-10.48
39959;BMP280;25639;53.634;9.880;2023-03-12T08:30:11;149843.94;;;-10.27
39959;BMP280;25639;53.634;9.880;2023-03-12T08:32:36;149901.69;;;-10.03
39959;BMP280;25639;53.634;9.880;2023-03-12T08:35:02;149904.22;;;-10.02
39959;BMP280;25639;53.634;9.880;2023-03-12T08:37:29;149924.31;;;-9.94
39959;BMP280;25639;53.634;9.880;2023-03-12T08:39:54;149923.03;;;-9.94
39959;BMP280;25639;53.634;9.880;2023-03-12T08:42:20;149916.78;;;-9.97
39959;BMP280;25639;53.634;9.880;2023-03-12T08:44:45;149956.94;;;-9.81
39959;BMP280;25639;53.634;9.880;2023-03-12T08:47:10;149979.56;;;-9.71
39959;BMP280;25639;53.634;9.880;2023-03-12T08:49:36;149953.19;;;-9.82
39959;BMP280;25639;53.634;9.880;2023-03-12T08:52:01;149941.91;;;-9.87
39959;BMP280;25639;53.634;9.880;2023-03-12T08:54:26;149934.34;;;-9.90
39959;BMP280;25639;53.634;9.880;2023-03-12T08:56:52;149958.19;;;-9.80
39959;BMP280;25639;53.634;9.880;2023-03-12T08:59:18;149900.44;;;-10.04
39959;BMP280;25639;53.634;9.880;2023-03-12T09:01:47;149931.81;;;-9.91
39959;BMP280;25639;53.634;9.880;2023-03-12T09:04:12;149938.13;;;-9.88
39959;BMP280;25639;53.634;9.880;2023-03-12T09:06:38;149928.09;;;-9.92
39959;BMP280;25639;53.634;9.880;2023-03-12T09:09:03;149880.38;;;-10.12
39959;BMP280;25639;53.634;9.880;2023-03-12T09:11:31;149892.88;;;-10.07
39959;BMP280;25639;53.634;9.880;2023-03-12T09:13:57;149905.44;;;-10.02
39959;BMP280;25639;53.634;9.880;2023-03-12T09:16:22;149904.22;;;-10.02
39959;BMP280;25639;53.634;9.880;2023-03-12T09:18:47;149875.31;;;-10.14
39959;BMP280;25639;53.634;9.880;2023-03-12T09:21:13;149960.72;;;-9.79
39959;BMP280;25639;53.634;9.880;2023-03-12T09:23:38;149953.19;;;-9.82
39959;BMP280;25639;53.634;9.880;2023-03-12T09:26:08;149988.34;;;-9.68
39959;BMP280;25639;53.634;9.880;2023-03-12T09:28:34;149997.13;;;-9.64
39959;BMP280;25639;53.634;9.880;2023-03-12T09:31:01;150037.31;;;-9.48
39959;BMP280;25639;53.634;9.880;2023-03-12T09:33:26;150018.50;;;-9.55
39959;BMP280;25639;53.634;9.880;2023-03-12T09:35:58;150046.16;;;-9.44
39959;BMP280;25639;53.634;9.880;2023-03-12T09:38:25;150038.63;;;-9.47
39959;BMP280;25639;53.634;9.880;2023-03-12T09:40:51;150014.72;;;-9.57
39959;BMP280;25639;53.634;9.880;2023-03-12T09:43:25;150023.50;;;-9.53
39959;BMP280;25639;53.634;9.880;2023-03-12T09:45:52;150037.31;;;-9.48
39959;BMP280;25639;53.634;9.880;2023-03-12T09:50:54;150132.81;;;-9.09
39959;BMP280;25639;53.634;9.880;2023-03-12T09:53:39;150108.97;;;-9.18
39959;BMP280;25639;53.634;9.880;2023-03-12T09:56:13;150145.38;;;-9.04
39959;BMP280;25639;53.634;9.880;2023-03-12T09:58:39;150122.78;;;-9.13
39959;BMP280;25639;53.634;9.880;2023-03-12T10:01:46;150168.00;;;-8.94
39959;BMP280;25639;53.634;9.880;2023-03-12T10:07:20;150159.22;;;-8.98
39959;BMP280;25639;53.634;9.880;2023-03-12T10:18:25;150213.28;;;-8.76
39959;BMP280;25639;53.634;9.880;2023-03-12T10:21:03;150237.16;;;-8.66
39959;BMP280;25639;53.634;9.880;2023-03-12T10:26:22;150215.78;;;-8.75
39959;BMP280;25639;53.634;9.880;2023-03-12T10:31:54;150256.00;;;-8.58
39959;BMP280;25639;53.634;9.880;2023-03-12T10:34:31;150230.88;;;-8.69
39959;BMP280;25639;53.634;9.880;2023-03-12T10:37:18;150242.16;;;-8.64
39959;BMP280;25639;53.634;9.880;2023-03-12T10:39:46;150237.16;;;-8.66
39959;BMP280;25639;53.634;9.880;2023-03-12T10:42:18;150215.78;;;-8.75
39959;BMP280;25639;53.634;9.880;2023-03-12T10:44:50;150188.13;;;-8.86
39959;BMP280;25639;53.634;9.880;2023-03-12T10:47:36;150195.69;;;-8.83
39959;BMP280;25639;53.634;9.880;2023-03-12T10:50:23;150258.53;;;-8.57
39959;BMP280;25639;53.634;9.880;2023-03-12T10:52:52;150219.56;;;-8.73
39959;BMP280;25639;53.634;9.880;2023-03-12T10:55:25;150195.69;;;-8.83
39959;BMP280;25639;53.634;9.880;2023-03-12T10:57:51;150206.97;;;-8.78
39959;BMP280;25639;53.634;9.880;2023-03-12T11:00:26;150210.75;;;-8.77
39959;BMP280;25639;53.634;9.880;2023-03-12T11:05:29;150210.75;;;-8.77
39959;BMP280;25639;53.634;9.880;2023-03-12T11:07:55;150239.69;;;-8.65
39959;BMP280;25639;53.634;9.880;2023-03-12T11:10:42;150235.91;;;-8.67
39959;BMP280;25639;53.634;9.880;2023-03-12T11:13:34;150198.19;;;-8.82
39959;BMP280;25639;53.634;9.880;2023-03-12T11:16:02;150210.75;;;-8.77
39959;BMP280;25639;53.634;9.880;2023-03-12T11:18:59;150198.19;;;-8.82
39959;BMP280;25639;53.634;9.880;2023-03-12T11:21:27;150222.09;;;-8.72
39959;BMP280;25639;53.634;9.880;2023-03-12T11:26:27;150245.94;;;-8.63
39959;BMP280;25639;53.634;9.880;2023-03-12T11:29:30;150225.88;;;-8.71
39959;BMP280;25639;53.634;9.880;2023-03-12T11:32:24;150235.91;;;-8.67
39959;BMP280;25639;53.634;9.880;2023-03-12T11:34:53;150276.13;;;-8.50
39959;BMP280;25639;53.634;9.880;2023-03-12T11:40:27;150288.69;;;-8.45
39959;BMP280;25639;53.634;9.880;2023-03-12T11:51:54;150274.88;;;-8.51
39959;BMP280;25639;53.634;9.880;2023-03-12T11:56:33;150248.47;;;-8.61
39959;BMP280;25639;53.634;9.880;2023-03-12T12:02:38;150243.47;;;-8.64
39959;BMP280;25639;53.634;9.880;2023-03-12T12:10:58;150247.19;;;-8.62
39959;BMP280;25639;53.634;9.880;2023-03-12T12:13:46;150213.28;;;-8.76
39959;BMP280;25639;53.634;9.880;2023-03-12T12:27:42;150174.31;;;-8.92
39959;BMP280;25639;53.634;9.880;2023-03-12T12:30:28;150162.97;;;-8.96
39959;BMP280;25639;53.634;9.880;2023-03-12T12:35:47;150140.38;;;-9.06
39959;BMP280;25639;53.634;9.880;2023-03-12T12:38:17;150121.53;;;-9.13
39959;BMP280;25639;53.634;9.880;2023-03-12T12:41:12;150122.78;;;-9.13
39959;BMP280;25639;53.634;9.880;2023-03-12T12:44:14;150178.09;;;-8.90
39959;BMP280;25639;53.634;9.880;2023-03-12T12:46:45;150178.09;;;-8.90
39959;BMP280;25639;53.634;9.880;2023-03-12T12:49:21;150141.63;;;-9.05
39959;BMP280;25639;53.634;9.880;2023-03-12T12:52:05;150071.25;;;-9.34
39959;BMP280;25639;53.634;9.880;2023-03-12T12:54:52;150021.03;;;-9.54
39959;BMP280;25639;53.634;9.880;2023-03-12T12:58:02;149975.78;;;-9.73
39959;BMP280;25639;53.634;9.880;2023-03-12T13:00:58;150007.22;;;-9.60
39959;BMP280;25639;53.634;9.880;2023-03-12T13:03:31;150067.47;;;-9.35
39959;BMP280;25639;53.634;9.880;2023-03-12T13:06:03;150056.19;;;-9.40
39959;BMP280;25639;53.634;9.880;2023-03-12T13:09:20;150004.69;;;-9.61
39959;BMP280;25639;53.634;9.880;2023-03-12T13:12:51;150052.41;;;-9.42
39959;BMP280;25639;53.634;9.880;2023-03-12T13:15:45;149975.78;;;-9.73
39959;BMP280;25639;53.634;9.880;2023-03-12T13:43:55;149997.13;;;-9.64
39959;BMP280;25639;53.634;9.880;2023-03-12T13:56:56;149876.59;;;-10.13
39959;BMP280;25639;53.634;9.880;2023-03-12T13:59:45;149871.59;;;-10.16
39959;BMP280;25639;53.634;9.880;2023-03-12T14:02:36;149871.59;;;-10.16
39959;BMP280;25639;53.634;9.880;2023-03-12T14:05:09;149880.38;;;-10.12
39959;BMP280;25639;53.634;9.880;2023-03-12T14:08:56;149900.44;;;-10.04
39959;BMP280;25639;53.634;9.880;2023-03-12T14:16:53;149846.47;;;-10.26
39959;BMP280;25639;53.634;9.880;2023-03-12T14:19:29;149830.19;;;-10.32
39959;BMP280;25639;53.634;9.880;2023-03-12T14:21:58;149856.50;;;-10.22
39959;BMP280;25639;53.634;9.880;2023-03-12T14:24:40;149860.28;;;-10.20
39959;BMP280;25639;53.634;9.880;2023-03-12T14:27:29;149857.75;;;-10.21
39959;BMP280;25639;53.634;9.880;2023-03-12T14:32:45;149815.13;;;-10.39
39959;BMP280;25639;53.634;9.880;2023-03-12T14:35:45;149808.84;;;-10.41
39959;BMP280;25639;53.634;9.880;2023-03-12T14:38:36;149817.63;;;-10.38
39959;BMP280;25639;53.634;9.880;2023-03-12T14:41:30;149817.63;;;-10.38
39959;BMP280;25639;53.634;9.880;2023-03-12T14:44:21;149803.81;;;-10.43
39959;BMP280;25639;53.634;9.880;2023-03-12T14:47:00;149788.78;;;-10.49
39959;BMP280;25639;53.634;9.880;2023-03-12T14:49:27;149772.47;;;-10.56
39959;BMP280;25639;53.634;9.880;2023-03-12T14:51:53;149796.28;;;-10.46
39959;BMP280;25639;53.634;9.880;2023-03-12T14:54:21;149791.28;;;-10.48
39959;BMP280;25639;53.634;9.880;2023-03-12T14:56:48;149811.38;;;-10.40
39959;BMP280;25639;53.634;9.880;2023-03-12T14:59:23;149791.28;;;-10.48
39959;BMP280;25639;53.634;9.880;2023-03-12T15:02:10;149773.69;;;-10.56
39959;BMP280;25639;53.634;9.880;2023-03-12T15:04:42;149758.66;;;-10.62
39959;BMP280;25639;53.634;9.880;2023-03-12T15:07:15;149746.09;;;-10.67
39959;BMP280;25639;53.634;9.880;2023-03-12T15:09:44;149737.31;;;-10.70
39959;BMP280;25639;53.634;9.880;2023-03-12T15:14:46;149734.78;;;-10.71
39959;BMP280;25639;53.634;9.880;2023-03-12T15:17:28;149717.22;;;-10.79
39959;BMP280;25639;53.634;9.880;2023-03-12T15:19:54;149705.97;;;-10.83
39959;BMP280;25639;53.634;9.880;2023-03-12T15:22:31;149731.00;;;-10.73
39959;BMP280;25639;53.634;9.880;2023-03-12T15:25:01;149715.97;;;-10.79
39959;BMP280;25639;53.634;9.880;2023-03-12T15:29:58;149685.84;;;-10.91
39959;BMP280;25639;53.634;9.880;2023-03-12T15:32:25;149689.63;;;-10.90
39959;BMP280;25639;53.634;9.880;2023-03-12T15:34:54;149669.53;;;-10.98
39959;BMP280;25639;53.634;9.880;2023-03-12T15:37:29;149662.03;;;-11.01
39959;BMP280;25639;53.634;9.880;2023-03-12T15:40:05;149668.28;;;-10.99
39959;BMP280;25639;53.634;9.880;2023-03-12T15:42:38;149677.06;;;-10.95
39959;BMP280;25639;53.634;9.880;2023-03-12T15:45:05;149679.59;;;-10.94
39959;BMP280;25639;53.634;9.880;2023-03-12T15:47:40;149689.63;;;-10.90
39959;BMP280;25639;53.634;9.880;2023-03-12T15:50:15;149687.09;;;-10.91
39959;BMP280;25639;53.634;9.880;2023-03-12T15:52:57;149683.38;;;-10.93
39959;BMP280;25639;53.634;9.880;2023-03-12T15:55:33;149665.81;;;-11.00
39959;BMP280;25639;53.634;9.880;2023-03-12T15:58:28;149675.84;;;-10.96